Time;durP1;ratioP1;P1;durP2;ratioP2;P2;SDS_P1;SDS_P2;PMS_P1;PMS_P2;Temp;Humidity;BMP_temperature;BMP_pressure;BME280_temperature;BME280_humidity;BME280_pressure;Samples;Min_cycle;Max_cycle;Signal;HPM_P1;HPM_P2
2021/01/02 00:02:05;;;;;;;26.17;20.02;;;;;;;2.53;100.00;100621.78;10241168;28;20054;-74
2021/01/02 00:07:56;;;;;;;31.45;21.90;;;;;;;2.47;100.00;100625.34;10259753;28;20050;-74
2021/01/02 00:13:24;;;;;;;32.92;21.35;;;;;;;2.42;100.00;100621.94;10251274;28;20423;-74
2021/01/02 00:18:37;;;;;;;29.25;21.13;;;;;;;2.47;100.00;100625.34;10293189;28;20410;-74
2021/01/02 00:24:15;;;;;;;26.10;19.33;;;;;;;2.46;100.00;100623.59;10261564;28;20504;-74
2021/01/02 00:29:22;;;;;;;26.88;21.00;;;;;;;2.48;100.00;100623.59;10234176;29;20399;-74
2021/01/02 00:34:57;;;;;;;25.70;20.63;;;;;;;2.52;100.00;100622.66;10252926;28;20408;-74
2021/01/02 00:40:10;;;;;;;26.33;20.05;;;;;;;2.45;100.00;100621.88;10242363;29;20582;-74
2021/01/02 00:45:22;;;;;;;25.42;18.55;;;;;;;2.51;100.00;100633.97;10236133;29;20098;-74
2021/01/02 00:50:26;;;;;;;28.48;22.13;;;;;;;2.47;100.00;100630.53;10250896;29;20117;-74
2021/01/02 00:56:03;;;;;;;27.03;19.53;;;;;;;2.54;100.00;100636.50;10246177;29;20114;-74
2021/01/02 01:01:07;;;;;;;25.27;17.92;;;;;;;2.59;100.00;100643.41;10208395;29;20075;-74
2021/01/02 01:06:21;;;;;;;26.67;19.88;;;;;;;2.50;100.00;100630.50;10241521;29;20399;-74
2021/01/02 01:11:32;;;;;;;26.25;19.50;;;;;;;2.47;100.00;100627.06;10238285;29;20058;-74
2021/01/02 01:16:43;;;;;;;26.73;19.38;;;;;;;2.35;100.00;100621.97;10254382;28;20062;-74
2021/01/02 01:21:46;;;;;;;27.23;18.98;;;;;;;2.27;100.00;100625.53;10254464;29;20047;-74
2021/01/02 01:27:04;;;;;;;28.25;19.30;;;;;;;2.25;100.00;100632.50;10254136;28;20043;-74
2021/01/02 01:32:07;;;;;;;29.30;21.80;;;;;;;2.15;100.00;100614.41;10250978;29;20063;-74
2021/01/02 01:37:08;;;;;;;25.23;19.45;;;;;;;2.06;100.00;100609.31;10252039;29;20039;-74
2021/01/02 01:42:12;;;;;;;28.15;21.45;;;;;;;2.00;100.00;100617.16;10234551;29;20061;-74
2021/01/02 01:47:17;;;;;;;26.20;21.70;;;;;;;1.99;100.00;100624.09;10253904;28;20043;-75
2021/01/02 01:52:37;;;;;;;27.75;20.20;;;;;;;1.94;100.00;100625.84;10254174;28;20043;-74
2021/01/02 01:57:40;;;;;;;27.08;20.20;;;;;;;2.00;100.00;100630.16;10254436;29;20380;-74
2021/01/02 02:02:44;;;;;;;29.83;21.55;;;;;;;1.98;100.00;100632.75;10255213;28;20050;-74
2021/01/02 02:08:05;;;;;;;28.33;22.10;;;;;;;2.06;100.00;100630.94;10271718;28;20051;-74
2021/01/02 02:13:20;;;;;;;29.55;21.52;;;;;;;2.04;100.00;100637.03;10253879;29;20051;-74
2021/01/02 02:18:27;;;;;;;30.02;22.73;;;;;;;2.02;100.00;100639.63;10253742;29;20483;-74
2021/01/02 02:23:39;;;;;;;30.20;21.88;;;;;;;2.09;100.00;100645.66;10252693;28;20102;-74
2021/01/02 02:28:52;;;;;;;38.17;20.98;;;;;;;2.04;100.00;100639.63;10233402;29;20051;-74
2021/01/02 02:33:58;;;;;;;25.55;18.67;;;;;;;2.08;100.00;100646.53;10252809;28;20114;-74
2021/01/02 02:39:06;;;;;;;27.02;20.60;;;;;;;2.11;100.00;100649.94;10211492;29;20087;-74
2021/01/02 02:44:10;;;;;;;25.85;18.98;;;;;;;2.14;100.00;100643.88;10246683;29;20377;-74
2021/01/02 02:49:16;;;;;;;26.80;19.90;;;;;;;2.12;100.00;100645.63;10235535;29;20043;-74
2021/01/02 02:54:17;;;;;;;28.15;20.98;;;;;;;2.14;100.00;100651.66;10253286;29;20055;-74
2021/01/02 02:59:18;;;;;;;26.20;19.25;;;;;;;2.14;100.00;100649.94;10255715;28;20046;-74
2021/01/02 03:04:19;;;;;;;29.08;21.23;;;;;;;2.13;100.00;100645.59;10274827;28;20050;-74
2021/01/02 03:09:20;;;;;;;29.50;21.58;;;;;;;2.17;100.00;100651.66;10261934;28;20047;-74
2021/01/02 03:14:22;;;;;;;31.80;20.55;;;;;;;2.11;100.00;100634.34;10260853;29;20058;-74
2021/01/02 03:19:27;;;;;;;31.63;22.80;;;;;;;2.02;100.00;100636.16;10259732;29;20118;-74
2021/01/02 03:24:28;;;;;;;30.55;21.55;;;;;;;2.06;100.00;100636.16;10259736;29;20047;-74
2021/01/02 03:29:30;;;;;;;31.27;20.98;;;;;;;2.13;100.00;100632.63;10259465;28;20051;-74
2021/01/02 03:34:36;;;;;;;32.33;21.73;;;;;;;2.14;100.00;100636.94;10259241;28;20055;-74
2021/01/02 03:39:37;;;;;;;30.38;21.17;;;;;;;2.15;100.00;100633.47;10239619;28;20068;-74
2021/01/02 03:44:38;;;;;;;28.58;19.92;;;;;;;2.24;100.00;100629.91;10243583;28;20038;-75
2021/01/02 03:49:39;;;;;;;26.90;19.80;;;;;;;2.07;100.00;100616.22;10289326;28;20053;-74
2021/01/02 03:54:41;;;;;;;30.70;21.42;;;;;;;2.13;100.00;100614.41;10273696;28;20054;-75
2021/01/02 03:59:42;;;;;;;28.98;20.50;;;;;;;2.08;100.00;100613.63;10294658;28;20447;-74
2021/01/02 04:04:43;;;;;;;30.92;20.67;;;;;;;2.15;100.00;100611.81;10298125;28;20097;-74
2021/01/02 04:09:44;;;;;;;25.13;19.17;;;;;;;2.16;100.00;100606.59;10276876;28;20055;-74
2021/01/02 04:14:45;;;;;;;27.83;19.33;;;;;;;2.21;100.00;100593.56;10257579;29;20047;-74
2021/01/02 04:19:46;;;;;;;26.75;19.20;;;;;;;2.12;100.00;100584.09;10257557;29;20043;-74
2021/01/02 04:24:47;;;;;;;26.95;18.67;;;;;;;2.12;100.00;100585.84;10256848;29;20051;-74
2021/01/02 04:29:48;;;;;;;30.20;20.75;;;;;;;2.20;100.00;100587.50;10256736;29;20527;-74
2021/01/02 04:34:49;;;;;;;30.25;21.10;;;;;;;2.12;100.00;100578.06;10256229;28;20090;-74
2021/01/02 04:39:50;;;;;;;27.17;19.75;;;;;;;2.13;100.00;100577.19;10256841;29;20484;-74
2021/01/02 04:44:52;;;;;;;25.65;20.02;;;;;;;2.01;100.00;100578.16;10256747;29;20047;-74
2021/01/02 04:49:53;;;;;;;28.00;20.90;;;;;;;2.06;100.00;100588.50;10256747;29;20039;-74
2021/01/02 04:54:56;;;;;;;27.42;20.33;;;;;;;2.12;100.00;100594.50;10256415;29;20051;-74
2021/01/02 05:00:00;;;;;;;27.33;19.38;;;;;;;2.08;100.00;100587.63;10255977;29;20403;-74
2021/01/02 05:05:01;;;;;;;28.13;20.70;;;;;;;2.14;100.00;100597.09;10238889;29;20436;-74
2021/01/02 05:10:03;;;;;;;29.20;20.83;;;;;;;1.99;100.00;100592.91;10256061;29;20055;-74
2021/01/02 05:15:13;;;;;;;29.45;19.75;;;;;;;2.05;100.00;100612.78;10255131;29;20047;-74
2021/01/02 05:20:15;;;;;;;31.15;21.88;;;;;;;1.97;100.00;100604.19;10255257;28;20043;-74
2021/01/02 05:25:21;;;;;;;28.63;18.77;;;;;;;1.96;100.00;100610.25;10254134;28;20511;-74
2021/01/02 05:30:25;;;;;;;27.65;19.45;;;;;;;1.98;100.00;100611.13;10254646;29;20039;-74
2021/01/02 05:35:43;;;;;;;27.58;20.23;;;;;;;2.06;100.00;100622.28;10254605;28;20050;-74
2021/01/02 05:40:48;;;;;;;30.65;20.30;;;;;;;1.90;100.00;100614.66;10237497;29;20047;-74
2021/01/02 05:45:49;;;;;;;;;;;;;;;1.88;100.00;100616.38;10255240;29;20055;-74
2021/01/02 05:50:55;;;;;;;29.98;21.40;;;;;;;1.76;100.00;100616.47;10238211;29;19922;-74
2021/01/02 05:56:10;;;;;;;30.58;22.27;;;;;;;1.81;100.00;100627.72;10253392;29;20055;-74
2021/01/02 06:01:11;;;;;;;29.70;20.67;;;;;;;1.98;100.00;100642.28;10255066;29;20050;-74
2021/01/02 06:06:14;;;;;;;32.22;21.98;;;;;;;1.98;100.00;100648.34;10237363;29;20054;-74
2021/01/02 06:11:20;;;;;;;27.70;19.20;;;;;;;1.93;100.00;100639.72;10235916;29;20098;-75
2021/01/02 06:16:24;;;;;;;33.67;23.50;;;;;;;1.84;100.00;100638.06;10237314;29;20054;-74
2021/01/02 06:21:25;;;;;;;33.25;22.17;;;;;;;1.84;100.00;100625.06;10253189;29;20051;-74
2021/01/02 06:26:27;;;;;;;32.63;22.17;;;;;;;2.00;100.00;100645.75;10252545;28;20050;-74
2021/01/02 06:31:33;;;;;;;32.75;21.33;;;;;;;2.00;100.00;100648.34;10252797;28;20039;-74
2021/01/02 06:36:39;;;;;;;31.27;21.25;;;;;;;2.00;100.00;100651.81;10261087;29;20051;-74
2021/01/02 06:41:40;;;;;;;31.20;21.25;;;;;;;1.95;100.00;100652.69;10259910;28;20047;-74
2021/01/02 06:46:41;;;;;;;31.92;21.92;;;;;;;1.84;100.00;100648.44;10261583;29;20043;-74
2021/01/02 06:51:49;;;;;;;28.77;20.77;;;;;;;1.92;100.00;100651.00;10261404;29;20473;-74
2021/01/02 06:57:05;;;;;;;33.55;21.95;;;;;;;2.02;100.00;100657.81;10259610;29;20055;-74
2021/01/02 07:02:06;;;;;;;33.38;20.52;;;;;;;2.05;100.00;100664.75;10260222;29;20522;-74
2021/01/02 07:07:07;;;;;;;33.92;22.83;;;;;;;2.04;100.00;100661.28;10226756;29;20043;-74
2021/01/02 07:12:13;;;;;;;36.28;23.83;;;;;;;2.16;100.00;100679.38;10260396;29;20507;-74
2021/01/02 07:17:23;;;;;;;37.80;24.88;;;;;;;1.98;100.00;100652.69;10243523;28;20095;-74
2021/01/02 07:22:26;;;;;;;30.05;20.77;;;;;;;1.85;100.00;100663.16;10259482;29;20050;-74
2021/01/02 07:27:39;;;;;;;35.13;22.52;;;;;;;1.99;100.00;100689.03;10259402;28;20095;-74
2021/01/02 07:32:43;;;;;;;29.25;18.30;;;;;;;1.96;100.00;100693.38;10250583;28;20055;-74
2021/01/02 07:37:46;;;;;;;32.30;21.43;;;;;;;2.03;100.00;100714.09;10269385;28;20047;-75
2021/01/02 07:42:47;;;;;;;31.67;21.05;;;;;;;1.91;100.00;100696.03;10246682;29;20080;-74
2021/01/02 07:47:53;;;;;;;31.25;21.25;;;;;;;1.88;100.00;100709.03;10292025;28;20375;-74
2021/01/02 07:52:57;;;;;;;36.55;23.27;;;;;;;1.91;100.00;100719.41;10295808;28;20134;-74
2021/01/02 07:58:00;;;;;;;31.73;22.05;;;;;;;2.16;100.00;100738.28;10265643;28;20053;-74
2021/01/02 08:03:05;;;;;;;34.65;21.38;;;;;;;2.15;100.00;100742.63;10258331;29;20043;-74
2021/01/02 08:08:07;;;;;;;29.38;19.30;;;;;;;2.23;100.00;100743.41;10258459;28;20051;-74
2021/01/02 08:13:08;;;;;;;28.75;20.58;;;;;;;2.24;100.00;100745.13;10257185;28;20483;-74
2021/01/02 08:18:10;;;;;;;26.88;19.67;;;;;;;2.17;100.00;100737.41;10257384;29;20405;-74
2021/01/02 08:23:15;;;;;;;32.72;20.50;;;;;;;2.24;100.00;100742.53;10256490;28;20090;-74
2021/01/02 08:28:17;;;;;;;26.75;19.35;;;;;;;2.35;100.00;100744.16;10256796;28;20047;-74
2021/01/02 08:33:18;;;;;;;31.13;20.50;;;;;;;2.38;100.00;100737.22;10257014;28;20468;-74
2021/01/02 08:38:19;;;;;;;31.33;19.80;;;;;;;2.29;100.00;100734.69;10256326;29;20046;-74
2021/01/02 08:43:25;;;;;;;33.80;22.38;;;;;;;2.31;100.00;100735.53;10256155;29;20051;-74
2021/01/02 08:48:27;;;;;;;29.75;20.60;;;;;;;2.05;100.00;100721.91;10256903;29;20428;-74
2021/01/02 08:53:33;;;;;;;30.73;19.27;;;;;;;2.23;100.00;100758.16;10257054;29;20043;-74
2021/01/02 08:58:35;;;;;;;28.70;18.52;;;;;;;2.24;100.00;100775.47;10253578;28;20506;-74
2021/01/02 09:03:36;;;;;;;29.23;20.13;;;;;;;2.40;100.00;100777.06;10255943;29;20050;-74
2021/01/02 09:08:37;;;;;;;25.95;18.23;;;;;;;2.41;100.00;100783.13;10255279;28;20051;-74
2021/01/02 09:13:38;;;;;;;32.58;21.95;;;;;;;2.28;100.00;100774.56;10256024;29;20495;-74
2021/01/02 09:18:41;;;;;;;38.80;24.67;;;;;;;2.18;100.00;100775.50;10255151;29;20042;-74
2021/01/02 09:23:46;;;;;;;26.55;19.65;;;;;;;2.31;100.00;100782.34;10254245;28;20047;-75
2021/01/02 09:28:49;;;;;;;31.30;19.17;;;;;;;2.49;100.00;100796.94;10254957;28;20047;-74
2021/01/02 09:33:52;;;;;;;27.30;18.25;;;;;;;2.54;100.00;100798.59;10255035;28;20500;-74
2021/01/02 09:38:54;;;;;;;28.77;18.63;;;;;;;2.73;100.00;100796.72;10252725;28;20047;-74
2021/01/02 09:43:57;;;;;;;25.95;18.33;;;;;;;2.47;100.00;100777.88;10254580;29;20059;-74
2021/01/02 09:48:59;;;;;;;33.00;20.33;;;;;;;2.70;100.00;100786.31;10253543;29;20047;-74
2021/01/02 09:54:00;;;;;;;26.73;17.13;;;;;;;2.65;100.00;100778.56;10253529;29;20054;-74
2021/01/02 09:59:01;;;;;;;27.60;18.38;;;;;;;2.48;100.00;100745.78;10254899;29;20078;-74
2021/01/02 10:04:02;;;;;;;31.13;19.58;;;;;;;2.66;100.00;100758.63;10253275;28;20051;-74
2021/01/02 10:09:03;;;;;;;30.05;19.08;;;;;;;3.64;100.00;100819.13;10214160;28;20056;-73
2021/01/02 10:14:04;;;;;;;27.48;17.70;;;;;;;3.71;100.00;100783.44;10251054;29;20047;-73
2021/01/02 10:19:08;;;;;;;27.00;18.17;;;;;;;2.98;100.00;100733.13;10250868;29;20050;-73
2021/01/02 10:24:09;;;;;;;23.48;16.65;;;;;;;3.05;100.00;100724.38;10250855;29;20031;-73
2021/01/02 10:29:11;;;;;;;25.80;17.33;;;;;;;3.27;100.00;100732.78;10249465;28;20039;-73
2021/01/02 10:34:12;;;;;;;24.23;17.13;;;;;;;3.49;100.00;100724.69;10250756;28;20059;-73
2021/01/02 10:39:13;;;;;;;35.38;21.95;;;;;;;3.70;100.00;100724.38;10247750;29;20051;-72
2021/01/02 10:44:15;;;;;;;26.33;16.73;;;;;;;3.66;100.00;100704.50;10249993;29;20047;-72
2021/01/02 10:49:19;;;;;;;25.25;17.67;;;;;;;3.76;100.00;100693.06;10240731;29;20040;-72
2021/01/02 10:54:20;;;;;;;27.38;17.45;;;;;;;3.77;100.00;100685.19;10251637;29;20055;-73
2021/01/02 10:59:23;;;;;;;27.70;18.80;;;;;;;3.62;100.00;100661.13;10249127;29;20503;-73
2021/01/02 11:04:26;;;;;;;29.77;19.00;;;;;;;3.94;100.00;100690.13;10251622;29;20043;-73
2021/01/02 11:09:28;;;;;;;33.80;24.08;;;;;;;4.29;100.00;100701.75;10251079;29;20039;-72
2021/01/02 11:14:29;;;;;;;35.33;23.90;;;;;;;4.36;100.00;100685.94;10250659;29;20054;-72
2021/01/02 11:19:30;;;;;;;42.63;32.58;;;;;;;4.49;100.00;100671.81;10253402;28;20051;-72
2021/01/02 11:24:40;;;;;;;28.90;20.33;;;;;;;4.50;100.00;100664.84;10258161;29;20399;-72
2021/01/02 11:29:41;;;;;;;29.08;19.77;;;;;;;3.87;100.00;100612.94;10252613;28;20043;-72
2021/01/02 11:34:42;;;;;;;31.17;22.25;;;;;;;3.53;100.00;100594.41;10257974;28;20063;-72
2021/01/02 11:39:43;;;;;;;33.25;22.35;;;;;;;3.30;100.00;100588.69;10295136;28;20065;-72
2021/01/02 11:44:44;;;;;;;31.25;20.52;;;;;;;3.57;100.00;100601.28;10262020;28;20416;-72
2021/01/02 11:49:48;;;;;;;36.75;22.05;;;;;;;3.53;100.00;100599.59;10241737;29;20110;-71
2021/01/02 11:54:49;;;;;;;36.08;21.58;;;;;;;3.68;100.00;100615.00;10258941;28;20051;-71
2021/01/02 11:59:50;;;;;;;35.97;21.73;;;;;;;3.61;100.00;100602.94;10257119;28;20507;-71
2021/01/02 12:04:52;;;;;;;38.92;24.05;;;;;;;3.56;100.00;100593.50;10248339;29;20070;-71
2021/01/02 12:09:53;;;;;;;37.50;21.65;;;;;;;3.39;100.00;100592.03;10257874;29;20047;-71
2021/01/02 12:14:54;;;;;;;33.80;21.70;;;;;;;3.59;100.00;100590.84;10249995;29;20087;-71
2021/01/02 12:19:55;;;;;;;37.70;24.05;;;;;;;3.40;100.00;100593.75;10233613;29;20053;-71
2021/01/02 12:24:56;;;;;;;33.45;20.70;;;;;;;3.35;100.00;100579.91;10253056;29;20067;-72
2021/01/02 12:29:57;;;;;;;34.35;20.35;;;;;;;3.48;100.00;100603.19;10237818;28;20055;-71
2021/01/02 12:34:59;;;;;;;36.20;22.70;;;;;;;3.58;100.00;100603.03;10238856;29;20059;-72
2021/01/02 12:40:01;;;;;;;51.97;28.33;;;;;;;3.62;100.00;100604.69;10239308;29;20055;-71
2021/01/02 12:45:03;;;;;;;38.63;24.83;;;;;;;3.88;100.00;100622.50;10256551;29;20480;-71
2021/01/02 12:50:07;;;;;;;40.03;25.83;;;;;;;3.66;100.00;100595.94;10257260;29;20043;-71
2021/01/02 12:55:08;;;;;;;40.13;24.23;;;;;;;3.71;100.00;100601.06;10237869;29;20058;-71
2021/01/02 13:00:10;;;;;;;42.00;24.85;;;;;;;3.66;100.00;100600.28;10236294;29;20044;-72
2021/01/02 13:05:11;;;;;;;45.92;27.73;;;;;;;3.38;100.00;100585.09;10254957;28;20039;-72
2021/01/02 13:10:13;;;;;;;156.23;78.45;;;;;;;3.43;100.00;100596.28;10248544;29;20043;-70
2021/01/02 13:15:14;;;;;;;141.40;72.45;;;;;;;3.57;100.00;100614.31;10252692;29;20058;-73
2021/01/02 13:20:15;;;;;;;51.85;32.47;;;;;;;3.55;100.00;100605.66;10252109;28;20035;-73
2021/01/02 13:25:17;;;;;;;50.63;30.38;;;;;;;4.00;100.00;100631.84;10253718;28;20090;-72
2021/01/02 13:30:18;;;;;;;44.92;27.60;;;;;;;3.63;100.00;100615.94;10247135;29;20051;-73
2021/01/02 13:35:19;;;;;;;36.88;23.30;;;;;;;3.20;100.00;100600.13;10250876;28;20051;-74
2021/01/02 13:40:21;;;;;;;42.00;25.75;;;;;;;3.47;100.00;100617.94;10252921;29;21266;-73
2021/01/02 13:45:23;;;;;;;44.25;25.55;;;;;;;3.40;100.00;100619.78;10252113;28;20399;-73
2021/01/02 13:50:24;;;;;;;44.67;28.92;;;;;;;3.48;100.00;100626.63;10235182;29;20046;-69
2021/01/02 13:55:25;;;;;;;44.58;25.33;;;;;;;3.36;100.00;100622.44;10251835;29;20131;-74
2021/01/02 14:00:27;;;;;;;41.22;24.83;;;;;;;3.33;100.00;100636.38;10251832;29;20050;-73
2021/01/02 14:05:28;;;;;;;50.75;28.50;;;;;;;3.34;100.00;100638.09;10228332;28;20039;-73
2021/01/02 14:10:29;;;;;;;49.45;28.17;;;;;;;3.47;100.00;100651.78;10249431;29;20043;-73
2021/01/02 14:15:30;;;;;;;46.70;27.27;;;;;;;3.35;100.00;100650.22;10218535;29;20118;-73
2021/01/02 14:20:31;;;;;;;43.80;25.55;;;;;;;3.24;100.00;100662.53;10234793;28;20090;-73
2021/01/02 14:25:32;;;;;;;40.78;24.05;;;;;;;3.27;100.00;100683.31;10250697;28;20035;-73
2021/01/02 14:30:33;;;;;;;38.30;24.60;;;;;;;3.33;100.00;100687.59;10252359;28;20102;-73
2021/01/02 14:35:34;;;;;;;49.40;27.88;;;;;;;3.23;100.00;100692.06;10232413;28;20055;-74
2021/01/02 14:40:35;;;;;;;47.60;28.02;;;;;;;3.23;100.00;100701.59;10287104;28;20055;-73
2021/01/02 14:45:36;;;;;;;37.60;24.05;;;;;;;3.25;100.00;100700.72;10292691;28;20050;-73
2021/01/02 14:50:37;;;;;;;68.90;35.47;;;;;;;3.30;100.00;100713.66;10289179;28;20043;-74
2021/01/02 14:55:39;;;;;;;58.88;30.63;;;;;;;3.29;100.00;100724.94;10291725;28;20035;-73
2021/01/02 15:00:40;;;;;;;33.42;21.00;;;;;;;3.40;100.00;100731.75;10291352;28;20040;-73
2021/01/02 15:05:42;;;;;;;34.70;21.25;;;;;;;3.36;100.00;100731.78;10258481;28;20117;-73
2021/01/02 15:10:44;;;;;;;36.85;21.50;;;;;;;3.28;100.00;100726.69;10261143;29;20055;-74
2021/01/02 15:15:45;;;;;;;53.30;30.63;;;;;;;3.40;100.00;100741.31;10266104;28;20415;-74
2021/01/02 15:20:46;;;;;;;52.05;28.00;;;;;;;3.47;100.00;100745.56;10291833;28;20047;-74
2021/01/02 15:25:47;;;;;;;47.78;28.58;;;;;;;3.43;100.00;100747.31;10278920;28;20051;-75
2021/01/02 15:30:48;;;;;;;57.92;33.75;;;;;;;3.40;100.00;100736.09;10269765;28;20074;-74
2021/01/02 15:35:50;;;;;;;53.47;33.92;;;;;;;3.44;100.00;100749.03;10290343;28;20060;-74
2021/01/02 15:40:58;;;;;;;56.50;35.40;;;;;;;3.46;100.00;100750.78;10257839;28;20047;-73
2021/01/02 15:46:00;;;;;;;43.70;31.40;;;;;;;3.47;100.00;100755.09;10259001;29;20106;-74
2021/01/02 15:51:03;;;;;;;35.50;24.75;;;;;;;3.37;100.00;100751.75;10259822;29;20491;-73
2021/01/02 15:56:04;;;;;;;31.75;22.38;;;;;;;3.37;100.00;100744.81;10258837;29;20055;-73
2021/01/02 16:01:07;;;;;;;32.38;21.58;;;;;;;3.29;100.00;100745.78;10259124;29;20055;-73
2021/01/02 16:06:10;;;;;;;29.53;19.30;;;;;;;3.16;100.00;100736.41;10241608;28;20042;-73
2021/01/02 16:11:11;;;;;;;29.73;18.67;;;;;;;3.19;100.00;100752.84;10242825;28;20286;-75
2021/01/02 16:16:12;;;;;;;31.35;19.48;;;;;;;3.25;100.00;100759.72;10250396;29;20058;-75
2021/01/02 16:21:18;;;;;;;29.00;18.17;;;;;;;3.25;100.00;100767.53;10255410;29;20058;-74
2021/01/02 16:26:36;;;;;;;29.85;19.95;;;;;;;3.21;100.00;100765.84;10255886;29;20043;-74
2021/01/02 16:31:48;;;;;;;28.40;18.38;;;;;;;3.12;100.00;100759.00;10279052;28;20039;-75
2021/01/02 16:36:49;;;;;;;31.13;19.58;;;;;;;3.20;100.00;100774.53;10239651;28;20047;-75
2021/01/02 16:41:55;;;;;;;34.28;20.17;;;;;;;3.21;100.00;100777.13;10225585;29;20511;-75
2021/01/02 16:47:09;;;;;;;29.08;19.17;;;;;;;3.22;100.00;100776.25;10252115;29;20439;-75
2021/01/02 16:52:13;;;;;;;38.45;22.92;;;;;;;3.13;100.00;100768.53;10253683;29;21381;-75
2021/01/02 16:57:33;;;;;;;37.80;22.77;;;;;;;3.13;100.00;100778.06;10250976;29;20039;-75
2021/01/02 17:02:35;;;;;;;33.45;22.42;;;;;;;3.03;100.00;100766.91;10252476;29;20513;-75
2021/01/02 17:07:39;;;;;;;38.08;24.05;;;;;;;3.07;100.00;100780.75;10252476;29;20055;-75
2021/01/02 17:12:41;;;;;;;36.88;21.42;;;;;;;3.05;100.00;100783.38;10249721;28;20051;-75
2021/01/02 17:17:42;;;;;;;34.65;21.77;;;;;;;2.95;100.00;100780.00;10252633;28;20054;-75
2021/01/02 17:22:43;;;;;;;29.10;18.75;;;;;;;2.99;100.00;100784.31;10232583;29;20048;-75
2021/01/02 17:27:44;;;;;;;31.95;20.70;;;;;;;3.01;100.00;100779.09;10246652;28;20051;-76
2021/01/02 17:32:45;;;;;;;31.67;19.90;;;;;;;2.90;100.00;100775.72;10294675;28;20059;-74
2021/01/02 17:37:46;;;;;;;30.60;19.77;;;;;;;2.86;100.00;100780.09;10269237;28;20465;-75
2021/01/02 17:42:48;;;;;;;34.28;21.10;;;;;;;2.88;100.00;100774.88;10254700;29;20102;-75
2021/01/02 17:47:49;;;;;;;56.67;36.10;;;;;;;2.85;100.00;100774.91;10256009;29;20439;-75
2021/01/02 17:52:52;;;;;;;51.45;34.40;;;;;;;2.83;100.00;100774.94;10254825;29;20419;-75
2021/01/02 17:57:53;;;;;;;35.97;22.80;;;;;;;2.79;100.00;100775.84;10237126;29;20053;-75
2021/01/02 18:02:55;;;;;;;51.70;35.95;;;;;;;2.80;100.00;100771.50;10254944;29;20050;-75
2021/01/02 18:08:07;;;;;;;54.08;34.33;;;;;;;2.82;100.00;100778.41;10254564;29;20818;-75
2021/01/02 18:13:10;;;;;;;45.42;29.10;;;;;;;2.81;100.00;100783.63;10254040;29;20051;-74
2021/01/02 18:18:12;;;;;;;37.25;24.73;;;;;;;2.80;100.00;100780.16;10250580;29;20111;-75
2021/01/02 18:23:13;;;;;;;37.00;22.63;;;;;;;2.80;100.00;100776.69;10237069;29;20039;-74
2021/01/02 18:28:14;;;;;;;35.63;21.00;;;;;;;2.79;100.00;100780.16;10264337;28;20049;-74
2021/01/02 18:33:15;;;;;;;49.22;29.35;;;;;;;2.85;100.00;100777.50;10265496;28;20499;-75
2021/01/02 18:38:16;;;;;;;75.90;45.60;;;;;;;2.85;100.00;100783.56;10253073;28;20063;-75
2021/01/02 18:43:17;;;;;;;44.17;25.65;;;;;;;2.73;100.00;100781.09;10247527;28;20039;-76
2021/01/02 18:48:18;;;;;;;45.80;25.10;;;;;;;2.76;100.00;100788.03;10234289;29;20043;-77
2021/01/02 18:53:19;;;;;;;40.75;22.70;;;;;;;2.78;100.00;100781.91;10251554;29;20050;-76
2021/01/02 18:58:21;;;;;;;36.88;22.95;;;;;;;2.74;100.00;100782.84;10233248;29;20046;-77
2021/01/02 19:03:22;;;;;;;43.90;26.77;;;;;;;2.78;100.00;100787.09;10245510;29;20098;-76
2021/01/02 19:08:23;;;;;;;43.03;28.17;;;;;;;2.83;100.00;100795.75;10232901;29;20468;-76
2021/01/02 19:13:26;;;;;;;41.28;26.02;;;;;;;2.77;100.00;100793.19;10251324;29;20066;-76
2021/01/02 19:18:27;;;;;;;39.03;25.13;;;;;;;2.71;100.00;100790.66;10249924;28;20043;-75
2021/01/02 19:23:29;;;;;;;40.90;25.00;;;;;;;2.69;100.00;100792.41;10209527;29;20048;-76
2021/01/02 19:28:30;;;;;;;53.38;30.88;;;;;;;2.57;100.00;100787.31;10226013;28;20122;-76
2021/01/02 19:33:31;;;;;;;66.72;38.25;;;;;;;2.73;100.00;100801.91;10234982;29;20055;-75
2021/01/02 19:38:32;;;;;;;68.28;38.78;;;;;;;2.72;100.00;100800.19;10250913;28;20051;-76
2021/01/02 19:43:33;;;;;;;39.58;23.33;;;;;;;2.59;100.00;100796.84;10247623;28;20049;-76
2021/01/02 19:48:34;;;;;;;52.15;31.48;;;;;;;2.59;100.00;100796.84;10257681;29;20043;-76
2021/01/02 19:53:35;;;;;;;55.10;32.72;;;;;;;2.65;100.00;100799.38;10253725;29;20052;-76
2021/01/02 19:58:37;;;;;;;47.70;31.58;;;;;;;2.74;100.00;100810.59;10227612;29;20051;-76
2021/01/02 20:03:58;;;;;;;35.38;20.63;;;;;;;2.70;100.00;100814.06;10219175;29;20103;-75
2021/01/02 20:08:59;;;;;;;32.15;20.30;;;;;;;2.54;100.00;100801.19;10249316;29;20051;-75
2021/01/02 20:14:00;;;;;;;38.00;21.80;;;;;;;2.44;100.00;100793.47;10240156;29;20043;-76
2021/01/02 20:19:02;;;;;;;36.08;20.52;;;;;;;2.55;100.00;100805.53;10247518;28;20063;-76
2021/01/02 20:24:06;;;;;;;33.60;24.23;;;;;;;2.54;100.00;100803.81;10208517;29;20051;-76
2021/01/02 20:29:10;;;;;;;35.35;21.42;;;;;;;2.40;100.00;100797.88;10274879;28;20035;-76
2021/01/02 20:34:12;;;;;;;37.45;23.02;;;;;;;2.56;100.00;100809.88;10281641;28;20396;-76
2021/01/02 20:39:15;;;;;;;34.90;22.27;;;;;;;2.52;100.00;100810.75;10256209;29;20039;-76
2021/01/02 20:44:17;;;;;;;41.42;24.17;;;;;;;2.51;100.00;100802.97;10256609;29;20098;-76
2021/01/02 20:49:21;;;;;;;36.45;24.20;;;;;;;2.54;100.00;100808.13;10239532;29;20051;-76
2021/01/02 20:54:22;;;;;;;43.40;24.48;;;;;;;2.70;100.00;100814.94;10238116;29;20395;-76
2021/01/02 20:59:26;;;;;;;39.17;23.38;;;;;;;2.63;100.00;100808.94;10256967;29;20051;-76
2021/01/02 21:04:29;;;;;;;39.72;22.27;;;;;;;2.59;100.00;100802.03;10255394;29;20039;-76
2021/01/02 21:09:32;;;;;;;37.67;23.27;;;;;;;2.65;100.00;100816.72;10253600;28;20041;-76
2021/01/02 21:14:39;;;;;;;39.03;24.13;;;;;;;2.70;100.00;100814.06;10254240;29;20043;-76
2021/01/02 21:19:40;;;;;;;40.05;24.00;;;;;;;2.66;100.00;100816.72;10254914;29;20385;-76
2021/01/02 21:24:58;;;;;;;42.67;25.05;;;;;;;2.68;100.00;100821.88;10254964;29;20043;-75
2021/01/02 21:29:59;;;;;;;40.33;24.38;;;;;;;2.68;100.00;100811.47;10279296;28;20349;-76
2021/01/02 21:35:00;;;;;;;37.97;24.55;;;;;;;2.68;100.00;100824.47;10275180;28;20055;-76
2021/01/02 21:40:04;;;;;;;37.67;23.95;;;;;;;2.63;100.00;100837.53;10253383;29;20452;-76
2021/01/02 21:45:06;;;;;;;42.58;26.98;;;;;;;2.55;100.00;100836.75;10242225;29;20051;-76
2021/01/02 21:50:09;;;;;;;47.97;29.85;;;;;;;2.54;100.00;100839.34;10254306;29;20062;-75
2021/01/02 21:55:12;;;;;;;39.88;25.02;;;;;;;2.68;100.00;100850.50;10254203;29;20051;-76
2021/01/02 22:00:20;;;;;;;38.70;23.92;;;;;;;2.65;100.00;100859.22;10254169;29;20050;-76
2021/01/02 22:05:22;;;;;;;34.47;21.65;;;;;;;2.61;100.00;100849.69;10251348;28;20043;-77
2021/01/02 22:10:24;;;;;;;37.13;21.77;;;;;;;2.63;100.00;100858.34;10226480;29;20047;-76
2021/01/02 22:15:25;;;;;;;38.10;23.30;;;;;;;2.69;100.00;100860.03;10252977;29;20054;-76
2021/01/02 22:20:26;;;;;;;35.10;22.45;;;;;;;2.68;100.00;100861.75;10251065;29;20051;-76
2021/01/02 22:25:27;;;;;;;39.05;25.10;;;;;;;2.65;100.00;100861.81;10252324;29;20046;-75
2021/01/02 22:30:28;;;;;;;38.15;23.58;;;;;;;2.57;100.00;100858.41;10251535;28;20035;-75
2021/01/02 22:35:29;;;;;;;40.60;23.50;;;;;;;2.65;100.00;100846.19;10251704;28;20051;-76
2021/01/02 22:40:30;;;;;;;42.85;24.90;;;;;;;2.62;100.00;100841.00;10246902;29;20043;-75
2021/01/02 22:45:31;;;;;;;40.55;23.95;;;;;;;2.60;100.00;100844.50;10232949;29;20052;-75